Time;durP1;ratioP1;P1;durP2;ratioP2;P2;SDS_P1;SDS_P2;PMS_P1;PMS_P2;Temp;Humidity;BMP_temperature;BMP_pressure;BME280_temperature;BME280_humidity;BME280_pressure;Samples;Min_cycle;Max_cycle;Signal;HPM_P1;HPM_P2
2022/11/11 00:00:27;;;;;;;17.55;7.45;;;;;;;-140.72;100.00;53005.72;4998399;28;20022;-67
2022/11/11 00:02:56;;;;;;;10.43;7.55;;;;;;;-140.72;100.00;52934.69;4999056;28;20037;-65
2022/11/11 00:05:22;;;;;;;11.95;8.15;;;;;;;-140.72;100.00;52957.03;4997022;28;20025;-65
2022/11/11 00:07:48;;;;;;;13.32;8.00;;;;;;;-140.72;100.00;53003.69;4999105;28;20109;-64
2022/11/11 00:10:13;;;;;;;10.63;7.13;;;;;;;-140.72;100.00;52963.13;4996023;28;20126;-65
2022/11/11 00:12:39;;;;;;;11.57;7.57;;;;;;;-140.72;100.00;52973.25;4993964;28;20018;-64
2022/11/11 00:15:05;;;;;;;11.48;8.15;;;;;;;-140.72;100.00;52934.69;4996853;28;20026;-66
2022/11/11 00:25:43;;;;;;;12.23;8.32;;;;;;;-140.72;100.00;52989.50;4997488;28;20477;-65
2022/11/11 00:28:08;;;;;;;13.70;9.25;;;;;;;-140.72;100.00;52989.50;5001268;28;20275;-65
2022/11/11 00:30:34;;;;;;;15.15;8.45;;;;;;;-140.72;100.00;52989.50;5000535;28;20355;-65
2022/11/11 00:32:59;;;;;;;15.48;9.05;;;;;;;-140.72;100.00;52999.66;4993066;28;20023;-66
2022/11/11 00:38:44;;;;;;;13.50;8.80;;;;;;;-140.72;100.00;52999.66;4996751;28;20370;-65
2022/11/11 00:40:56;;;;;;;17.42;9.05;;;;;;;-140.72;100.00;52995.59;4996202;28;20466;-64
2022/11/11 00:43:21;;;;;;;16.63;8.98;;;;;;;-140.72;100.00;52979.34;5002255;28;20519;-64
2022/11/11 00:45:47;;;;;;;13.50;8.85;;;;;;;-140.72;100.00;52989.50;5000711;28;20081;-64
2022/11/11 00:50:59;;;;;;;15.07;10.30;;;;;;;-140.72;100.00;52979.34;5007475;28;20128;-65
2022/11/11 00:53:30;;;;;;;17.27;10.02;;;;;;;-140.72;100.00;52967.16;4994735;28;20497;-65
2022/11/11 00:55:56;;;;;;;13.65;9.02;;;;;;;-140.72;100.00;52963.13;4997950;28;20414;-65
2022/11/11 00:58:22;;;;;;;15.82;9.95;;;;;;;-140.72;100.00;52973.25;4999945;28;20130;-65
2022/11/11 01:00:54;;;;;;;13.70;9.98;;;;;;;-140.72;100.00;52955.00;5000158;28;20273;-65
2022/11/11 01:03:20;;;;;;;15.15;9.40;;;;;;;-140.72;100.00;53003.69;5000813;28;20076;-65
2022/11/11 01:05:45;;;;;;;18.70;9.43;;;;;;;-140.72;100.00;52975.28;4991768;28;20030;-66
2022/11/11 01:08:14;;;;;;;15.05;9.65;;;;;;;-140.72;100.00;52930.66;5001793;28;20018;-65
2022/11/11 01:10:42;;;;;;;14.70;9.75;;;;;;;-140.72;100.00;52969.19;5008790;28;20033;-66
2022/11/11 01:13:43;;;;;;;13.05;9.43;;;;;;;-140.72;100.00;52948.91;5009653;28;20030;-66
2022/11/11 01:16:19;;;;;;;21.20;11.32;;;;;;;-140.72;100.00;52995.59;5007115;28;20041;-66
2022/11/11 01:18:44;;;;;;;18.73;9.32;;;;;;;-140.72;100.00;52957.03;5005000;28;20092;-66
2022/11/11 01:21:28;;;;;;;15.30;9.13;;;;;;;-140.72;100.00;52969.19;5000939;28;20433;-66
2022/11/11 01:23:53;;;;;;;17.23;10.15;;;;;;;-140.72;100.00;52975.28;5006815;28;20018;-66
2022/11/11 01:26:22;;;;;;;14.23;10.15;;;;;;;-140.72;100.00;52979.34;5005299;28;20061;-65
2022/11/11 01:28:51;;;;;;;14.80;9.85;;;;;;;-140.72;100.00;52987.47;4991817;28;20049;-65
2022/11/11 01:31:20;;;;;;;17.30;10.98;;;;;;;-140.72;100.00;52979.34;5003201;28;20374;-65
2022/11/11 01:33:46;;;;;;;13.63;9.43;;;;;;;-140.72;100.00;52963.13;4991099;28;20026;-65
2022/11/11 01:36:18;;;;;;;18.38;11.93;;;;;;;-140.72;100.00;53001.66;5010231;28;20260;-65
2022/11/11 01:38:47;;;;;;;18.00;9.90;;;;;;;-140.72;100.00;52991.53;5008507;28;20022;-65
2022/11/11 01:41:36;;;;;;;14.00;10.17;;;;;;;-140.72;100.00;52959.06;4998405;28;20025;-64
2022/11/11 01:44:11;;;;;;;15.00;10.15;;;;;;;-140.72;100.00;52991.53;5009014;28;20295;-65
2022/11/11 01:46:54;;;;;;;15.45;10.55;;;;;;;-140.72;100.00;52987.47;4998494;28;20023;-66
2022/11/11 01:49:31;;;;;;;16.48;10.50;;;;;;;-140.72;100.00;52965.16;4992062;28;20053;-66
2022/11/11 01:52:08;;;;;;;16.88;8.90;;;;;;;-140.72;100.00;52981.38;4990310;28;20481;-65
2022/11/11 01:54:39;;;;;;;15.15;9.63;;;;;;;-140.72;100.00;52993.56;4990970;28;20069;-66
2022/11/11 01:57:17;;;;;;;15.70;10.27;;;;;;;-140.72;100.00;52973.25;4996833;28;20486;-64
2022/11/11 01:59:45;;;;;;;13.63;9.48;;;;;;;-140.72;100.00;52993.56;5000642;28;20478;-65
2022/11/11 02:02:25;;;;;;;19.38;10.65;;;;;;;-140.72;100.00;52955.00;4991505;28;20034;-64
2022/11/11 02:07:39;;;;;;;19.00;10.27;;;;;;;-140.72;100.00;53015.88;5000699;28;20120;-65
2022/11/11 02:10:07;;;;;;;22.42;9.80;;;;;;;-140.72;100.00;52967.16;5007561;28;20480;-64
2022/11/11 02:15:16;;;;;;;14.57;9.82;;;;;;;-140.72;100.00;52997.63;5004164;28;20481;-66
2022/11/11 02:17:42;;;;;;;19.15;11.20;;;;;;;-140.72;100.00;52952.97;4991102;28;20023;-65
2022/11/11 02:20:09;;;;;;;16.10;9.73;;;;;;;-140.72;100.00;53005.72;4993122;28;20022;-71
2022/11/11 02:23:20;;;;;;;16.48;11.00;;;;;;;-140.72;100.00;53032.13;5001115;28;20026;-64
2022/11/11 02:25:48;;;;;;;15.25;9.75;;;;;;;-140.72;100.00;52967.16;4989639;28;20030;-65
2022/11/11 02:28:15;;;;;;;14.90;10.15;;;;;;;-140.72;100.00;52969.19;4998581;28;20022;-64
2022/11/11 02:30:40;;;;;;;17.45;10.93;;;;;;;-140.72;100.00;52955.00;5009693;28;20366;-64
2022/11/11 02:33:05;;;;;;;17.08;10.48;;;;;;;-140.72;100.00;52989.50;4999665;28;20026;-65
2022/11/11 02:35:36;;;;;;;23.70;11.45;;;;;;;-140.72;100.00;52985.44;4989801;28;20479;-65
2022/11/11 02:38:08;;;;;;;18.90;11.27;;;;;;;-140.72;100.00;52977.31;5000606;28;20034;-64
2022/11/11 02:43:25;;;;;;;15.13;10.07;;;;;;;-140.72;100.00;52950.94;5008874;28;20100;-65
2022/11/11 02:45:51;;;;;;;20.08;11.25;;;;;;;-140.72;100.00;52965.16;5008163;28;20446;-65
2022/11/11 02:48:16;;;;;;;21.05;12.15;;;;;;;-140.72;100.00;52991.53;5007549;28;20076;-66
2022/11/11 02:50:42;;;;;;;18.40;11.57;;;;;;;-140.72;100.00;52948.91;4998294;28;20215;-65
2022/11/11 02:53:07;;;;;;;15.90;10.25;;;;;;;-140.72;100.00;53003.69;4995605;28;20026;-65
2022/11/11 02:55:32;;;;;;;21.58;11.23;;;;;;;-140.72;100.00;52971.22;4997518;28;20474;-65
2022/11/11 02:57:58;;;;;;;17.90;11.48;;;;;;;-140.72;100.00;52967.16;4995697;28;20030;-66
2022/11/11 03:00:23;;;;;;;17.02;10.88;;;;;;;-140.72;100.00;52987.47;5002134;28;20171;-64
2022/11/11 03:02:49;;;;;;;15.50;10.30;;;;;;;-140.72;100.00;52971.22;5002154;28;20468;-66
2022/11/11 03:05:14;;;;;;;14.95;9.48;;;;;;;-140.72;100.00;52979.34;5009094;28;20088;-65
2022/11/11 03:07:40;;;;;;;22.27;11.25;;;;;;;-140.72;100.00;52971.22;5009533;28;20038;-67
2022/11/11 03:10:05;;;;;;;18.17;10.85;;;;;;;-140.72;100.00;53048.34;5007776;28;20064;-68
2022/11/11 03:12:31;;;;;;;13.45;9.73;;;;;;;-140.72;100.00;52983.41;4996402;28;20092;-65
2022/11/11 03:14:56;;;;;;;13.73;10.82;;;;;;;-140.72;100.00;52997.63;5007009;28;20068;-65
2022/11/11 03:17:40;;;;;;;21.60;10.65;;;;;;;-140.72;100.00;53009.78;4988685;28;20034;-65
2022/11/11 03:23:13;;;;;;;19.60;10.38;;;;;;;-140.72;100.00;52991.53;5001678;28;20186;-66
2022/11/11 03:25:41;;;;;;;15.52;10.23;;;;;;;-140.72;100.00;52983.41;4991193;28;20018;-65
2022/11/11 03:28:10;;;;;;;20.67;11.35;;;;;;;-140.72;100.00;52955.00;4997507;28;20108;-65
2022/11/11 03:30:38;;;;;;;17.75;11.63;;;;;;;-140.72;100.00;52979.34;5007680;28;20454;-65
2022/11/11 03:33:04;;;;;;;17.77;11.20;;;;;;;-140.72;100.00;53011.81;4997379;28;20049;-66
2022/11/11 03:35:30;;;;;;;17.30;11.07;;;;;;;-140.72;100.00;52981.38;4993859;28;20018;-64
2022/11/11 03:40:44;;;;;;;17.85;10.95;;;;;;;-140.72;100.00;52985.44;4995277;28;20061;-66
2022/11/11 03:43:11;;;;;;;13.55;10.43;;;;;;;-140.72;100.00;53011.81;5008097;28;20054;-66
2022/11/11 03:45:36;;;;;;;18.70;10.68;;;;;;;-140.72;100.00;53013.84;5006155;28;20037;-65
2022/11/11 03:48:02;;;;;;;13.70;9.68;;;;;;;-140.72;100.00;52995.59;5002308;28;20489;-65
2022/11/11 03:50:28;;;;;;;17.05;9.48;;;;;;;-140.72;100.00;52973.25;4992464;28;20018;-65
2022/11/11 03:52:53;;;;;;;15.30;9.90;;;;;;;-140.72;100.00;53001.66;4997153;28;20022;-64
2022/11/11 03:55:18;;;;;;;14.45;10.18;;;;;;;-140.72;100.00;52999.66;5003768;28;20030;-65
2022/11/11 03:57:45;;;;;;;15.75;10.18;;;;;;;-140.72;100.00;52971.22;4996245;28;20053;-65
2022/11/11 04:00:20;;;;;;;17.80;10.18;;;;;;;-140.72;100.00;52950.94;5007720;28;20038;-65
2022/11/11 04:11:27;;;;;;;20.90;11.15;;;;;;;-140.72;100.00;52957.03;4947780;29;20032;-65
2022/11/11 04:16:38;;;;;;;16.63;10.57;;;;;;;-140.72;100.00;52967.16;4980109;28;20072;-65
2022/11/11 04:22:02;;;;;;;14.55;10.88;;;;;;;-140.72;100.00;52975.28;4966020;28;20038;-66
2022/11/11 04:27:13;;;;;;;16.58;9.95;;;;;;;-140.72;100.00;52999.66;5005389;28;20041;-66
2022/11/11 04:29:38;;;;;;;17.10;9.48;;;;;;;-140.72;100.00;52995.59;5006168;28;20535;-65
2022/11/11 04:34:56;;;;;;;15.88;9.88;;;;;;;-140.72;100.00;53003.69;5011271;28;20501;-65
2022/11/11 04:37:23;;;;;;;13.15;9.65;;;;;;;-140.72;100.00;52995.59;5010997;28;20365;-64
2022/11/11 04:42:34;;;;;;;14.13;9.35;;;;;;;-140.72;100.00;52993.56;5010963;28;20041;-64
2022/11/11 04:48:00;;;;;;;21.13;12.05;;;;;;;-140.72;100.00;52999.66;5009851;28;20040;-65
2022/11/11 04:50:37;;;;;;;13.75;9.48;;;;;;;-140.72;100.00;52983.41;5004173;28;20038;-65
2022/11/11 04:53:09;;;;;;;16.73;9.90;;;;;;;-140.72;100.00;52971.22;4995700;28;20022;-66
2022/11/11 04:58:20;;;;;;;15.90;9.15;;;;;;;-140.72;100.00;53007.75;5001420;28;20061;-65
2022/11/11 05:00:45;;;;;;;15.80;10.13;;;;;;;-140.72;100.00;53011.81;5002632;28;20101;-65
2022/11/11 05:03:15;;;;;;;12.60;8.85;;;;;;;-140.72;100.00;52999.66;5002223;28;20105;-65
2022/11/11 05:11:13;;;;;;;16.25;10.00;;;;;;;-140.72;100.00;52999.66;5008105;28;20033;-65
2022/11/11 05:22:07;;;;;;;13.30;8.93;;;;;;;-140.72;100.00;53003.69;5007826;28;20104;-64
2022/11/11 05:27:16;;;;;;;15.40;8.80;;;;;;;-140.72;100.00;52971.22;5007851;28;20397;-64
2022/11/11 05:29:41;;;;;;;15.93;9.95;;;;;;;-140.72;100.00;52973.25;5007577;28;20030;-65
2022/11/11 05:32:08;;;;;;;17.38;9.02;;;;;;;-140.72;100.00;53009.78;5008149;28;20496;-64
2022/11/11 05:34:33;;;;;;;14.00;9.75;;;;;;;-140.72;100.00;53015.88;4999469;28;20030;-64
2022/11/11 05:36:58;;;;;;;12.70;8.20;;;;;;;-140.72;100.00;53011.81;5004019;28;20029;-64
2022/11/11 05:39:24;;;;;;;13.63;9.60;;;;;;;-140.72;100.00;52983.41;4991059;28;20113;-64
2022/11/11 05:41:49;;;;;;;15.07;10.10;;;;;;;-140.72;100.00;53026.03;5006957;28;20427;-65
2022/11/11 05:44:15;;;;;;;15.02;9.40;;;;;;;-140.72;100.00;52989.50;4992952;28;20038;-65
2022/11/11 05:46:40;;;;;;;15.30;9.13;;;;;;;-140.72;100.00;53017.91;4992308;28;20113;-65
2022/11/11 05:49:14;;;;;;;14.57;9.38;;;;;;;-140.72;100.00;53034.16;4998854;28;20031;-64
2022/11/11 05:51:41;;;;;;;15.70;10.15;;;;;;;-140.72;100.00;53032.13;5009165;28;20454;-66
2022/11/11 05:54:06;;;;;;;15.98;9.60;;;;;;;-140.72;100.00;52993.56;4997099;28;20034;-65
2022/11/11 05:56:31;;;;;;;17.33;9.65;;;;;;;-140.72;100.00;53030.09;5003129;28;20057;-65
2022/11/11 05:58:57;;;;;;;17.67;9.63;;;;;;;-140.72;100.00;52995.59;5001875;28;20065;-65
2022/11/11 06:01:22;;;;;;;12.38;8.85;;;;;;;-140.72;100.00;52983.41;4996077;28;20105;-66
2022/11/11 06:03:48;;;;;;;13.98;8.70;;;;;;;-140.72;100.00;52987.47;5009730;28;20014;-65
2022/11/11 06:06:13;;;;;;;18.30;10.48;;;;;;;-140.72;100.00;53003.69;5009289;28;20536;-65
2022/11/11 06:08:39;;;;;;;19.50;9.65;;;;;;;-140.72;100.00;52993.56;5009969;28;20573;-65
2022/11/11 06:11:05;;;;;;;15.82;9.50;;;;;;;-140.72;100.00;53011.81;5008033;28;20080;-66
2022/11/11 06:13:30;;;;;;;12.55;8.82;;;;;;;-140.72;100.00;53015.88;5009820;28;20451;-66
2022/11/11 06:15:56;;;;;;;13.07;9.25;;;;;;;-140.72;100.00;52977.31;5009348;28;20079;-66
2022/11/11 06:18:22;;;;;;;15.95;9.43;;;;;;;-140.72;100.00;53019.94;5007490;28;20350;-65
2022/11/11 06:20:57;;;;;;;13.30;8.90;;;;;;;-140.72;100.00;53007.75;5009193;28;20026;-67
2022/11/11 06:23:24;;;;;;;15.32;10.23;;;;;;;-140.72;100.00;52991.53;5006513;28;20034;-64
2022/11/11 06:28:35;;;;;;;14.15;9.65;;;;;;;-140.72;100.00;53048.34;5009994;28;20088;-66
2022/11/11 06:31:01;;;;;;;11.88;9.10;;;;;;;-140.72;100.00;52997.63;5008694;28;20025;-65
2022/11/11 06:33:26;;;;;;;12.68;8.73;;;;;;;-140.72;100.00;52991.53;5008544;28;20486;-66
2022/11/11 06:35:52;;;;;;;14.95;8.85;;;;;;;-140.72;100.00;53015.88;5009026;28;20030;-66
2022/11/11 06:38:18;;;;;;;20.75;9.95;;;;;;;-140.72;100.00;53044.28;5009200;28;20030;-65
2022/11/11 06:40:43;;;;;;;12.25;8.80;;;;;;;-140.72;100.00;53007.75;5006906;28;20038;-65
2022/11/11 06:43:09;;;;;;;17.42;9.77;;;;;;;-140.72;100.00;52999.66;5007260;28;20670;-65
2022/11/11 06:45:35;;;;;;;13.38;8.70;;;;;;;-140.72;100.00;53005.72;5007896;28;20116;-65
2022/11/11 06:48:01;;;;;;;15.93;9.95;;;;;;;-140.72;100.00;52997.63;5008033;28;20026;-66
2022/11/11 06:50:28;;;;;;;15.70;9.63;;;;;;;-140.72;100.00;53017.91;5008682;28;20026;-66
2022/11/11 06:52:53;;;;;;;11.80;9.00;;;;;;;-140.72;100.00;52997.63;5007356;28;20045;-66
2022/11/11 06:55:19;;;;;;;13.65;9.70;;;;;;;-140.72;100.00;52957.03;4998937;28;20030;-65
2022/11/11 06:57:44;;;;;;;16.50;9.57;;;;;;;-140.72;100.00;53034.16;5003128;28;20029;-65
2022/11/11 07:00:10;;;;;;;14.73;9.20;;;;;;;-140.72;100.00;53056.47;5005978;28;20042;-66
2022/11/11 07:02:35;;;;;;;15.25;9.18;;;;;;;-140.72;100.00;53003.69;5004806;28;20065;-65
2022/11/11 07:05:01;;;;;;;15.15;9.73;;;;;;;-140.72;100.00;53040.22;5005991;28;20038;-66
2022/11/11 07:07:27;;;;;;;15.93;9.50;;;;;;;-140.72;100.00;53034.16;5005579;28;20029;-66
2022/11/11 07:09:56;;;;;;;16.15;9.70;;;;;;;-140.72;100.00;52989.50;4994352;28;20106;-66
2022/11/11 07:12:22;;;;;;;11.30;7.50;;;;;;;-140.72;100.00;53034.16;5001491;28;20033;-65
2022/11/11 07:14:47;;;;;;;14.20;9.63;;;;;;;-140.72;100.00;53056.47;4991802;28;20025;-65
2022/11/11 07:17:12;;;;;;;13.98;10.13;;;;;;;-140.72;100.00;52995.59;4990034;28;20101;-66
2022/11/11 07:19:38;;;;;;;15.18;9.90;;;;;;;-140.72;100.00;53021.97;5006686;28;20025;-66
2022/11/11 07:22:03;;;;;;;12.60;8.93;;;;;;;-140.72;100.00;53028.06;4999648;28;20018;-65
2022/11/11 07:24:29;;;;;;;20.65;9.68;;;;;;;-140.72;100.00;53013.84;4996600;28;20014;-65
2022/11/11 07:26:55;;;;;;;14.55;8.57;;;;;;;-140.72;100.00;53021.97;5008694;28;20037;-66
2022/11/11 07:29:20;;;;;;;13.93;9.30;;;;;;;-140.72;100.00;52999.66;5008285;28;20041;-66
2022/11/11 07:31:45;;;;;;;13.50;8.70;;;;;;;-140.72;100.00;53026.03;5013171;28;20519;-65
2022/11/11 07:34:10;;;;;;;12.98;9.07;;;;;;;-140.72;100.00;53044.28;5011865;28;20021;-66
2022/11/11 07:36:36;;;;;;;14.02;8.65;;;;;;;-140.72;100.00;53005.72;5000275;28;20033;-66
2022/11/11 07:39:01;;;;;;;14.85;9.77;;;;;;;-140.72;100.00;52995.59;5000532;28;20038;-66
2022/11/11 07:41:26;;;;;;;12.23;9.18;;;;;;;-140.72;100.00;53007.75;5004066;28;20021;-65
2022/11/11 07:43:52;;;;;;;14.48;9.52;;;;;;;-140.72;100.00;53028.06;4998628;28;20112;-65
2022/11/11 07:46:17;;;;;;;16.65;8.75;;;;;;;-140.72;100.00;53009.78;5007104;28;20057;-66
2022/11/11 07:48:43;;;;;;;12.20;8.52;;;;;;;-140.72;100.00;53060.53;5003465;28;20363;-66
2022/11/11 07:51:08;;;;;;;15.23;9.82;;;;;;;-140.72;100.00;53005.72;5005274;28;20055;-65
2022/11/11 07:53:34;;;;;;;11.70;8.38;;;;;;;-140.72;100.00;53015.88;4999083;28;20026;-66
2022/11/11 07:55:59;;;;;;;13.63;8.10;;;;;;;-140.72;100.00;53032.13;5005137;28;20022;-65
2022/11/11 07:58:24;;;;;;;12.90;7.90;;;;;;;-140.72;100.00;52991.53;5003350;28;20038;-66
2022/11/11 08:00:50;;;;;;;13.60;9.93;;;;;;;-140.72;100.00;53011.81;5001907;28;20060;-66
2022/11/11 08:03:15;;;;;;;16.45;9.35;;;;;;;-140.72;100.00;53024.00;5010954;28;20104;-65
2022/11/11 08:05:41;;;;;;;14.38;8.63;;;;;;;-140.72;100.00;53001.66;5011739;28;20029;-66
2022/11/11 08:08:08;;;;;;;18.63;9.30;;;;;;;-140.72;100.00;53007.75;5011691;28;20022;-65
2022/11/11 08:10:34;;;;;;;12.65;8.82;;;;;;;-140.72;100.00;53007.75;5009869;28;20535;-65
2022/11/11 08:15:43;;;;;;;13.07;8.18;;;;;;;-140.72;100.00;52942.81;5004587;28;20037;-67
2022/11/11 08:18:09;;;;;;;12.98;9.00;;;;;;;-140.72;100.00;53009.78;5008299;28;20029;-67
2022/11/11 08:20:34;;;;;;;12.10;8.48;;;;;;;-140.72;100.00;52993.56;5005283;28;20020;-66
2022/11/11 08:23:03;;;;;;;13.55;8.73;;;;;;;-140.72;100.00;53003.69;5011948;28;20022;-66
2022/11/11 08:25:29;;;;;;;10.88;7.43;;;;;;;-140.72;100.00;52973.25;5002607;28;20026;-66
2022/11/11 08:28:03;;;;;;;14.88;8.00;;;;;;;-140.72;100.00;52989.50;5003631;28;20112;-67
2022/11/11 08:30:28;;;;;;;12.50;8.65;;;;;;;-140.72;100.00;53003.69;5013008;28;20156;-65
2022/11/11 08:32:58;;;;;;;13.38;8.35;;;;;;;-140.72;100.00;52991.53;5013731;28;20105;-66
2022/11/11 08:35:24;;;;;;;12.43;7.47;;;;;;;-140.72;100.00;53032.13;5009478;28;20032;-65
2022/11/11 08:37:49;;;;;;;13.38;9.70;;;;;;;-140.72;100.00;53005.72;5015961;28;20030;-65
2022/11/11 08:40:15;;;;;;;10.02;6.47;;;;;;;-140.72;100.00;52979.34;5002366;28;20029;-66
2022/11/11 08:42:41;;;;;;;11.65;7.43;;;;;;;-140.72;100.00;52999.66;5001434;28;20061;-65
2022/11/11 08:45:08;;;;;;;10.57;6.70;;;;;;;-140.72;100.00;53003.69;5024193;28;20481;-65
2022/11/11 08:47:34;;;;;;;9.82;6.72;;;;;;;-140.72;100.00;53028.06;5018044;28;20351;-65
2022/11/11 08:49:59;;;;;;;10.82;8.32;;;;;;;-140.72;100.00;52961.09;5004983;28;20076;-65
2022/11/11 08:52:24;;;;;;;16.15;8.18;;;;;;;-140.72;100.00;53001.66;4998413;28;20031;-65
2022/11/11 08:54:49;;;;;;;14.18;7.38;;;;;;;-140.72;100.00;53007.75;4996410;28;20073;-66
2022/11/11 08:57:17;;;;;;;13.27;7.70;;;;;;;-140.72;100.00;53015.88;5004158;28;20412;-65
2022/11/11 08:59:43;;;;;;;9.45;6.53;;;;;;;-140.72;100.00;52963.13;4999609;28;20037;-66
2022/11/11 09:02:11;;;;;;;12.18;6.72;;;;;;;-140.72;100.00;52985.44;4997860;28;20032;-65
2022/11/11 09:04:36;;;;;;;12.98;6.70;;;;;;;-140.72;100.00;52983.41;5010609;28;20057;-66
2022/11/11 09:07:02;;;;;;;12.32;8.00;;;;;;;-140.72;100.00;52950.94;5009991;28;20066;-67
2022/11/11 09:09:27;;;;;;;11.82;7.60;;;;;;;-140.72;100.00;52983.41;5011061;28;20491;-66
2022/11/11 09:11:52;;;;;;;9.98;7.75;;;;;;;-140.72;100.00;52967.16;5010237;28;20534;-66
2022/11/11 09:14:17;;;;;;;12.48;7.97;;;;;;;-140.72;100.00;52985.44;4998922;28;20465;-66
2022/11/11 09:16:43;;;;;;;12.35;7.82;;;;;;;-140.72;100.00;52967.16;5001391;28;20029;-67
2022/11/11 09:19:08;;;;;;;8.80;6.50;;;;;;;-140.72;100.00;52942.81;5008707;28;20121;-65
2022/11/11 09:21:35;;;;;;;9.38;6.43;;;;;;;-140.72;100.00;53040.22;5011652;28;20049;-65
2022/11/11 09:24:00;;;;;;;9.13;5.93;;;;;;;-140.72;100.00;52955.00;5009909;28;20025;-66
2022/11/11 09:26:25;;;;;;;11.00;6.95;;;;;;;-140.72;100.00;52983.41;5003768;28;20022;-66
2022/11/11 09:28:51;;;;;;;9.43;7.20;;;;;;;-140.72;100.00;52981.38;5008628;28;20026;-66
2022/11/11 09:31:16;;;;;;;10.85;6.72;;;;;;;-140.72;100.00;52967.16;5004001;28;20061;-66
2022/11/11 09:33:42;;;;;;;9.13;6.70;;;;;;;-140.72;100.00;52946.88;5008369;28;20386;-65
2022/11/11 09:36:07;;;;;;;12.10;7.18;;;;;;;-140.72;100.00;52936.72;4999279;28;20474;-67
2022/11/11 09:38:32;;;;;;;10.27;6.90;;;;;;;-140.72;100.00;52948.91;5001664;28;20022;-67
2022/11/11 09:41:43;;;;;;;12.70;7.05;;;;;;;-140.72;100.00;52950.94;5005416;28;20030;-67
2022/11/11 09:44:42;;;;;;;13.40;7.20;;;;;;;-140.72;100.00;52973.25;4915598;29;20028;-65
2022/11/11 09:47:26;;;;;;;8.98;6.00;;;;;;;-140.72;100.00;52948.91;4922231;29;20400;-66
2022/11/11 09:50:01;;;;;;;10.00;6.88;;;;;;;-140.72;100.00;52955.00;4989852;28;20037;-68
2022/11/11 09:52:32;;;;;;;8.55;5.65;;;;;;;-140.72;100.00;52983.41;5007794;28;20033;-66
2022/11/11 09:55:00;;;;;;;9.88;6.38;;;;;;;-140.72;100.00;52995.59;5010409;28;20311;-64
2022/11/11 09:57:49;;;;;;;9.27;6.68;;;;;;;-140.72;100.00;52967.16;5007305;28;20018;-66
2022/11/11 10:00:35;;;;;;;11.23;6.78;;;;;;;-140.72;100.00;52971.22;5005523;28;20038;-66
2022/11/11 10:03:11;;;;;;;8.43;6.20;;;;;;;-140.72;100.00;52963.13;5007097;28;20083;-67
2022/11/11 10:05:48;;;;;;;7.07;5.40;;;;;;;-140.72;100.00;52977.31;4999472;28;20108;-66
2022/11/11 10:08:23;;;;;;;9.60;6.13;;;;;;;-140.72;100.00;52989.50;5001010;28;20366;-66
2022/11/11 10:10:53;;;;;;;10.30;6.75;;;;;;;-140.72;100.00;52959.06;5000553;28;20271;-65
2022/11/11 10:13:26;;;;;;;11.52;5.90;;;;;;;-140.72;100.00;52950.94;5009272;28;20025;-65
2022/11/11 10:16:00;;;;;;;10.77;6.47;;;;;;;-140.72;100.00;52967.16;5008938;28;20030;-65
2022/11/11 10:18:44;;;;;;;8.98;5.47;;;;;;;-140.72;100.00;52975.28;4996311;28;20341;-65
2022/11/11 10:21:47;;;;;;;9.60;6.72;;;;;;;-140.72;100.00;52985.44;5006184;28;20069;-64
2022/11/11 10:24:20;;;;;;;10.23;6.82;;;;;;;-140.72;100.00;52922.53;4987536;28;20025;-65
2022/11/11 10:26:46;;;;;;;9.32;6.50;;;;;;;-140.72;100.00;52930.66;4995306;28;20471;-66
2022/11/11 10:29:19;;;;;;;9.48;6.53;;;;;;;-140.72;100.00;52967.16;4998217;28;20033;-66
2022/11/11 10:32:08;;;;;;;8.45;6.03;;;;;;;-140.72;100.00;52936.72;5002620;28;20022;-65
2022/11/11 10:34:36;;;;;;;8.57;5.68;;;;;;;-140.72;100.00;52920.50;4988273;28;20031;-65
2022/11/11 10:37:02;;;;;;;9.48;5.53;;;;;;;-140.72;100.00;52944.84;4998369;28;20128;-64
2022/11/11 10:40:08;;;;;;;7.53;5.03;;;;;;;-140.72;100.00;52934.69;4991656;28;20023;-65
2022/11/11 10:42:33;;;;;;;9.50;5.82;;;;;;;-140.72;100.00;52959.06;5001543;28;20061;-66
2022/11/11 10:45:15;;;;;;;7.93;4.93;;;;;;;-140.72;100.00;52936.72;4990759;28;20026;-66
2022/11/11 10:47:57;;;;;;;7.63;5.82;;;;;;;-140.72;100.00;52930.66;4999551;28;20022;-65
2022/11/11 10:50:33;;;;;;;9.68;5.70;;;;;;;-140.72;100.00;52975.28;4996740;28;20025;-66
2022/11/11 10:53:08;;;;;;;8.70;5.28;;;;;;;-140.72;100.00;52944.84;5004661;28;20029;-65
2022/11/11 10:55:46;;;;;;;8.43;6.55;;;;;;;-140.72;100.00;52922.53;5004447;28;20026;-65
2022/11/11 10:58:20;;;;;;;9.60;5.93;;;;;;;-140.72;100.00;52950.94;4996202;28;20043;-66
2022/11/11 11:00:52;;;;;;;6.80;5.18;;;;;;;-140.72;100.00;52926.59;4994511;28;20035;-66
2022/11/11 11:03:18;;;;;;;8.50;5.07;;;;;;;-140.72;100.00;52924.56;5005908;28;20021;-65
2022/11/11 11:06:12;;;;;;;8.23;5.50;;;;;;;-140.72;100.00;52967.16;5013337;28;20025;-64
2022/11/11 11:09:25;;;;;;;7.20;4.70;;;;;;;-140.72;100.00;52985.44;5012781;28;20030;-65
2022/11/11 11:12:34;;;;;;;6.65;4.85;;;;;;;-140.72;100.00;52930.66;5012744;28;20029;-65
2022/11/11 11:15:05;;;;;;;7.50;4.97;;;;;;;-140.72;100.00;52977.31;4999407;28;20030;-66
2022/11/11 11:17:50;;;;;;;7.57;5.35;;;;;;;-140.72;100.00;52969.19;5011910;28;20025;-65
2022/11/11 11:20:19;;;;;;;7.63;5.10;;;;;;;-140.72;100.00;52952.97;5003666;28;20072;-66
2022/11/11 11:22:47;;;;;;;8.20;4.82;;;;;;;-140.72;100.00;52934.69;5007108;28;20034;-65
2022/11/11 11:25:18;;;;;;;6.88;4.85;;;;;;;-140.72;100.00;52922.53;5005157;28;20034;-66
2022/11/11 11:27:44;;;;;;;7.53;5.03;;;;;;;-140.72;100.00;52916.44;5004542;28;20072;-65
2022/11/11 11:30:24;;;;;;;11.40;5.80;;;;;;;-140.72;100.00;52930.66;5010857;28;20026;-65
2022/11/11 11:33:07;;;;;;;5.72;4.32;;;;;;;-140.72;100.00;52963.13;4995733;28;20022;-66
2022/11/11 11:35:42;;;;;;;10.10;4.95;;;;;;;-140.72;100.00;52942.81;4999134;28;20207;-66
2022/11/11 11:38:12;;;;;;;5.88;4.18;;;;;;;-140.72;100.00;52926.59;5007041;28;20022;-66
2022/11/11 11:40:47;;;;;;;8.20;4.50;;;;;;;-140.72;100.00;52979.34;5007127;28;20401;-65
2022/11/11 11:43:36;;;;;;;7.78;4.40;;;;;;;-140.72;100.00;52914.41;5006813;28;20041;-66
2022/11/11 11:46:13;;;;;;;7.00;4.97;;;;;;;-140.72;100.00;52946.88;5003981;28;20034;-65
2022/11/11 11:49:14;;;;;;;6.43;4.63;;;;;;;-140.72;100.00;52920.50;5010183;28;20041;-66
2022/11/11 11:51:39;;;;;;;5.07;3.55;;;;;;;-140.72;100.00;52914.41;4999757;28;20112;-66
2022/11/11 11:54:25;;;;;;;7.07;4.28;;;;;;;-140.72;100.00;52912.38;4998579;28;20178;-66
2022/11/11 11:56:55;;;;;;;6.20;3.90;;;;;;;-140.72;100.00;52910.34;4994797;28;20045;-67
2022/11/11 11:59:40;;;;;;;7.55;3.28;;;;;;;-140.72;100.00;52869.75;5009836;28;20034;-65
2022/11/11 12:02:32;;;;;;;6.63;3.97;;;;;;;-140.72;100.00;52900.19;4999573;28;20049;-65
2022/11/11 12:05:06;;;;;;;5.72;3.83;;;;;;;-140.72;100.00;52879.91;5009138;28;20049;-65
2022/11/11 12:07:51;;;;;;;6.80;4.35;;;;;;;-140.72;100.00;52865.69;5001280;28;20030;-65
2022/11/11 12:10:24;;;;;;;6.63;3.67;;;;;;;-140.72;100.00;52900.19;5000910;28;20108;-65
2022/11/11 12:13:02;;;;;;;5.60;4.13;;;;;;;-140.72;100.00;52861.66;5009660;28;20026;-65
2022/11/11 12:15:37;;;;;;;4.85;3.35;;;;;;;-140.72;100.00;52847.44;5000620;28;20038;-66
2022/11/11 12:18:47;;;;;;;8.13;4.22;;;;;;;-140.72;100.00;52869.75;5007875;28;20419;-66
2022/11/11 12:21:14;;;;;;;6.28;3.47;;;;;;;-140.72;100.00;52875.84;5002747;28;20393;-65
2022/11/11 12:23:51;;;;;;;9.10;3.47;;;;;;;-140.72;100.00;52821.06;5004292;28;20788;-64
2022/11/11 12:27:00;;;;;;;5.60;3.53;;;;;;;-140.72;100.00;52788.59;5001291;28;20045;-64
2022/11/11 12:29:34;;;;;;;5.57;3.80;;;;;;;-140.72;100.00;52762.22;4998475;28;20033;-66
2022/11/11 12:32:25;;;;;;;5.20;3.30;;;;;;;-140.72;100.00;52721.63;5008334;28;20080;-66
2022/11/11 12:35:19;;;;;;;3.42;2.53;;;;;;;-140.72;100.00;52664.81;5003786;28;20026;-65